createdAt,value
2022-08-17T00:02:25.462Z,22.10
2022-08-17T00:04:57.319Z,22.08
2022-08-17T00:07:24.236Z,22.14
2022-08-17T00:09:51.126Z,22.13
2022-08-17T00:12:43.683Z,22.14
2022-08-17T00:15:10.331Z,22.10
2022-08-17T00:17:38.369Z,22.08
2022-08-17T00:20:06.161Z,22.03
2022-08-17T00:22:46.642Z,21.98
2022-08-17T00:25:17.030Z,21.97
2022-08-17T00:27:43.821Z,21.91
2022-08-17T00:30:12.338Z,21.90
2022-08-17T00:33:11.854Z,21.87
2022-08-17T00:35:33.087Z,21.81
2022-08-17T00:38:00.303Z,21.82
2022-08-17T00:40:27.258Z,21.87
2022-08-17T00:43:27.429Z,21.88
2022-08-17T00:45:54.677Z,21.88
2022-08-17T00:48:29.547Z,21.84
2022-08-17T00:51:20.519Z,21.87
2022-08-17T00:53:51.528Z,21.86
2022-08-17T00:56:22.919Z,21.82
2022-08-17T00:58:52.185Z,21.81
2022-08-17T01:01:21.388Z,21.79
2022-08-17T01:03:51.206Z,21.78
2022-08-17T01:06:18.294Z,21.94
2022-08-17T01:08:45.353Z,22.10
2022-08-17T01:11:12.525Z,22.04
2022-08-17T01:13:42.079Z,22.06
2022-08-17T01:16:13.321Z,22.14
2022-08-17T01:18:40.533Z,22.06
2022-08-17T01:21:11.639Z,21.90
2022-08-17T01:23:38.555Z,21.62
2022-08-17T01:26:06.331Z,21.67
2022-08-17T01:28:54.328Z,21.68
2022-08-17T01:31:22.994Z,21.72
2022-08-17T01:33:49.899Z,21.75
2022-08-17T01:36:16.836Z,21.54
2022-08-17T01:38:44.062Z,21.59
2022-08-17T01:41:14.695Z,21.57
2022-08-17T01:44:09.734Z,21.59
2022-08-17T01:46:37.309Z,21.62
2022-08-17T01:49:09.843Z,21.70
2022-08-17T01:51:38.455Z,21.65
2022-08-17T01:54:08.918Z,21.62
2022-08-17T01:56:39.118Z,21.63
2022-08-17T01:59:06.484Z,21.61
2022-08-17T02:01:34.704Z,21.50
2022-08-17T02:04:03.153Z,21.46
2022-08-17T02:06:45.251Z,21.37
2022-08-17T02:09:19.683Z,21.29
2022-08-17T02:11:50.286Z,21.23
2022-08-17T02:14:17.987Z,21.21
2022-08-17T02:16:45.146Z,21.23
2022-08-17T02:19:15.731Z,21.14
2022-08-17T02:21:46.292Z,21.09
2022-08-17T02:24:18.130Z,21.05
2022-08-17T02:27:05.429Z,21.01
2022-08-17T02:29:32.670Z,20.97
2022-08-17T02:32:01.659Z,20.92
2022-08-17T02:34:29.173Z,20.92
2022-08-17T02:36:56.355Z,20.82
2022-08-17T02:39:23.286Z,20.70
2022-08-17T02:41:50.402Z,20.67
2022-08-17T02:44:38.794Z,20.73
2022-08-17T02:47:05.045Z,20.59
2022-08-17T02:49:32.483Z,20.46
2022-08-17T02:51:59.405Z,20.34
2022-08-17T02:54:41.303Z,20.32
2022-08-17T02:57:10.091Z,20.29
2022-08-17T02:59:38.559Z,20.22
2022-08-17T03:02:11.174Z,20.17
2022-08-17T03:04:38.563Z,20.17
2022-08-17T03:07:05.726Z,20.22
2022-08-17T03:09:32.841Z,20.24
2022-08-17T03:12:08.611Z,20.18
2022-08-17T03:14:42.336Z,20.19
2022-08-17T03:17:10.687Z,20.20
2022-08-17T03:19:37.711Z,20.16
2022-08-17T03:22:34.696Z,20.19
2022-08-17T03:25:00.905Z,20.28
2022-08-17T03:27:31.240Z,20.38
2022-08-17T03:30:00.904Z,20.37
2022-08-17T03:32:28.091Z,20.35
2022-08-17T03:35:00.760Z,20.33
2022-08-17T03:37:31.123Z,20.28
2022-08-17T03:40:01.298Z,20.30
2022-08-17T03:42:32.983Z,20.31
2022-08-17T03:45:05.684Z,20.35
2022-08-17T03:47:51.623Z,20.40
2022-08-17T03:50:37.387Z,20.36
2022-08-17T03:53:28.619Z,20.12
2022-08-17T03:56:17.982Z,20.03
2022-08-17T03:58:45.860Z,20.20
2022-08-17T04:01:13.246Z,20.30
2022-08-17T04:03:40.570Z,20.37
2022-08-17T04:06:07.730Z,20.38
2022-08-17T04:08:35.463Z,20.42
2022-08-17T04:11:02.623Z,20.44
2022-08-17T04:13:29.548Z,20.46
2022-08-17T04:15:57.310Z,20.55
2022-08-17T04:18:25.980Z,20.55
2022-08-17T04:20:53.804Z,20.59
2022-08-17T04:23:20.772Z,20.32
2022-08-17T04:25:50.182Z,20.34
2022-08-17T04:28:18.994Z,20.47
2022-08-17T04:30:47.392Z,20.58
2022-08-17T04:33:19.917Z,20.69
2022-08-17T04:35:54.056Z,20.81
2022-08-17T04:38:30.723Z,20.65
2022-08-17T04:41:17.189Z,20.86
2022-08-17T04:43:46.277Z,21.01
2022-08-17T04:46:16.826Z,21.03
2022-08-17T04:48:49.251Z,21.14
2022-08-17T04:51:28.015Z,21.40
2022-08-17T04:53:58.804Z,21.49
2022-08-17T04:56:27.152Z,21.68
2022-08-17T04:58:56.941Z,21.87
2022-08-17T05:01:25.081Z,22.10
2022-08-17T05:03:54.154Z,22.22
2022-08-17T05:06:21.650Z,22.34
2022-08-17T05:08:48.591Z,22.56
2022-08-17T05:11:15.847Z,22.67
2022-08-17T05:13:42.784Z,22.74
2022-08-17T05:16:09.733Z,22.94
2022-08-17T05:18:38.820Z,22.89
2022-08-17T05:21:06.896Z,22.87
2022-08-17T05:23:41.994Z,23.04
2022-08-17T05:26:25.503Z,23.13
2022-08-17T05:28:55.056Z,23.05
2022-08-17T05:31:24.566Z,22.93
2022-08-17T05:33:51.865Z,23.18
2022-08-17T05:36:43.212Z,23.48
2022-08-17T05:39:06.620Z,23.44
2022-08-17T05:41:33.608Z,23.63
2022-08-17T05:44:00.515Z,23.87
2022-08-17T05:46:36.233Z,24.10
2022-08-17T05:49:06.014Z,26.13
2022-08-17T05:51:51.431Z,29.93
2022-08-17T05:54:43.617Z,32.58
2022-08-17T05:57:28.483Z,36.34
2022-08-17T06:00:06.787Z,38.08
2022-08-17T06:03:05.110Z,39.69
2022-08-17T06:05:40.887Z,40.79
2022-08-17T06:08:11.409Z,40.99
2022-08-17T06:10:56.231Z,42.16
2022-08-17T06:13:53.831Z,43.04
2022-08-17T06:16:34.098Z,43.67
2022-08-17T06:19:10.261Z,44.28
2022-08-17T06:21:40.096Z,44.85
2022-08-17T06:24:19.136Z,45.67
2022-08-17T06:26:46.665Z,45.87
2022-08-17T06:29:29.692Z,42.79
2022-08-17T06:31:57.682Z,43.54
2022-08-17T06:34:24.643Z,45.35
2022-08-17T06:37:01.645Z,46.18
2022-08-17T06:39:36.695Z,46.14
2022-08-17T06:42:54.813Z,46.32
2022-08-17T06:45:25.023Z,45.57
2022-08-17T06:48:13.162Z,45.93
2022-08-17T06:50:46.507Z,45.22
2022-08-17T06:53:45.783Z,45.42
2022-08-17T06:56:22.200Z,45.12
2022-08-17T06:58:49.549Z,45.45
2022-08-17T07:01:26.979Z,44.72
2022-08-17T07:04:05.039Z,44.17
2022-08-17T07:06:45.190Z,45.36
2022-08-17T07:09:23.393Z,44.70
2022-08-17T07:11:55.506Z,44.32
2022-08-17T07:14:31.906Z,44.37
2022-08-17T07:17:02.072Z,45.02
2022-08-17T07:19:32.941Z,42.48
2022-08-17T07:22:18.398Z,42.77
2022-08-17T07:24:57.324Z,40.12
2022-08-17T07:27:31.317Z,42.29
2022-08-17T07:30:21.506Z,41.43
2022-08-17T07:33:01.693Z,41.77
2022-08-17T07:35:37.968Z,43.00
2022-08-17T07:38:24.188Z,41.93
2022-08-17T07:41:05.325Z,42.17
2022-08-17T07:43:36.797Z,42.92
2022-08-17T07:46:39.521Z,42.38
2022-08-17T07:49:09.555Z,43.18
2022-08-17T07:51:55.363Z,43.18
2022-08-17T07:54:36.823Z,42.25
2022-08-17T07:57:15.714Z,41.14
2022-08-17T08:00:05.911Z,39.53
2022-08-17T08:02:46.135Z,39.45
2022-08-17T08:05:46.259Z,40.22
2022-08-17T08:08:47.183Z,38.34
2022-08-17T08:11:29.793Z,39.45
2022-08-17T08:14:18.353Z,39.32
2022-08-17T08:16:55.491Z,39.17
2022-08-17T08:19:26.244Z,40.36
2022-08-17T08:22:07.655Z,41.18
2022-08-17T08:24:40.917Z,41.00
2022-08-17T08:27:32.760Z,40.36
2022-08-17T08:30:09.937Z,41.06
2022-08-17T08:32:48.056Z,38.99
2022-08-17T08:35:22.665Z,39.20
2022-08-17T08:37:58.006Z,38.65
2022-08-17T08:40:47.092Z,38.79
2022-08-17T08:43:34.589Z,36.27
2022-08-17T08:46:30.889Z,36.84
2022-08-17T08:49:45.266Z,38.59
2022-08-17T08:52:31.022Z,39.19
2022-08-17T08:55:08.767Z,40.08
2022-08-17T08:57:44.360Z,40.32
2022-08-17T09:00:23.536Z,38.34
2022-08-17T09:03:17.521Z,37.61
2022-08-17T09:06:06.810Z,37.05
2022-08-17T09:09:17.430Z,38.23
2022-08-17T09:12:02.270Z,38.30
2022-08-17T09:14:46.912Z,38.50
2022-08-17T09:17:18.385Z,39.30
2022-08-17T09:19:59.522Z,39.28
2022-08-17T09:22:38.824Z,38.52
2022-08-17T09:25:22.195Z,38.92
2022-08-17T09:28:03.727Z,38.96
2022-08-17T09:30:53.274Z,38.39
2022-08-17T09:33:26.024Z,38.67
2022-08-17T09:35:58.631Z,38.66
2022-08-17T09:38:41.647Z,38.79
2022-08-17T09:41:20.642Z,38.80
2022-08-17T09:44:22.653Z,39.16
2022-08-17T09:46:55.406Z,39.55
2022-08-17T09:49:42.684Z,39.44
2022-08-17T09:52:09.772Z,40.07
2022-08-17T09:54:40.519Z,39.57
2022-08-17T09:57:32.038Z,40.23
2022-08-17T10:00:11.887Z,40.43
2022-08-17T10:02:57.298Z,40.02
2022-08-17T10:05:46.412Z,38.23
2022-08-17T10:08:32.131Z,37.90
2022-08-17T10:11:33.389Z,37.40
2022-08-17T10:14:37.681Z,35.99
2022-08-17T10:17:09.775Z,36.52
2022-08-17T10:19:48.094Z,36.28
2022-08-17T10:22:56.506Z,35.76
2022-08-17T10:25:54.778Z,35.67
2022-08-17T10:28:29.528Z,35.91
2022-08-17T10:31:23.330Z,36.03
2022-08-17T10:34:02.758Z,36.20
2022-08-17T10:36:54.930Z,35.49
2022-08-17T10:39:35.374Z,35.96
2022-08-17T10:42:48.989Z,35.38
2022-08-17T10:45:18.863Z,35.76
2022-08-17T10:48:05.051Z,36.28
2022-08-17T10:50:48.016Z,36.29
2022-08-17T10:53:32.979Z,36.89
2022-08-17T10:56:12.011Z,37.30
2022-08-17T10:58:57.168Z,37.41
2022-08-17T11:01:27.396Z,37.15
2022-08-17T11:03:57.434Z,36.70
2022-08-17T11:06:47.509Z,36.90
2022-08-17T11:09:27.614Z,37.15
2022-08-17T11:12:20.101Z,37.27
2022-08-17T11:15:23.519Z,37.14
2022-08-17T11:18:01.457Z,36.82
2022-08-17T11:20:49.928Z,36.79
2022-08-17T11:23:35.111Z,36.35
2022-08-17T11:26:08.304Z,35.99
2022-08-17T11:28:48.644Z,35.91
2022-08-17T11:31:59.892Z,36.20
2022-08-17T11:34:28.641Z,36.66
2022-08-17T11:37:07.721Z,35.90
2022-08-17T11:39:49.919Z,36.52
2022-08-17T11:42:16.754Z,36.54
2022-08-17T11:44:58.935Z,36.76
2022-08-17T11:48:27.306Z,37.23
2022-08-17T11:51:18.191Z,37.72
2022-08-17T11:53:45.826Z,37.54
2022-08-17T11:56:58.966Z,37.62
2022-08-17T11:59:46.092Z,37.56
2022-08-17T12:02:22.339Z,37.55
2022-08-17T12:05:27.227Z,37.25
2022-08-17T12:08:01.364Z,37.15
2022-08-17T12:10:34.311Z,37.19
2022-08-17T12:13:07.150Z,37.35
2022-08-17T12:15:48.745Z,37.32
2022-08-17T12:18:37.402Z,36.73
2022-08-17T12:21:15.415Z,36.53
2022-08-17T12:24:13.346Z,36.48
2022-08-17T12:26:43.994Z,36.71
2022-08-17T12:29:18.420Z,36.85
2022-08-17T12:32:04.619Z,37.03
2022-08-17T12:34:35.995Z,36.47
2022-08-17T12:37:07.061Z,36.30
2022-08-17T12:39:34.230Z,36.00
2022-08-17T12:42:02.778Z,35.80
2022-08-17T12:44:32.114Z,35.91
2022-08-17T12:47:06.937Z,35.68
2022-08-17T12:49:37.228Z,36.05
2022-08-17T12:52:19.390Z,36.09
2022-08-17T12:54:51.296Z,35.96
2022-08-17T12:57:22.955Z,35.79
2022-08-17T12:59:53.531Z,35.48
2022-08-17T13:02:38.772Z,35.51
2022-08-17T13:05:07.767Z,35.75
2022-08-17T13:07:44.815Z,35.85
2022-08-17T13:10:32.213Z,36.20
2022-08-17T13:13:04.987Z,36.10
2022-08-17T13:15:38.160Z,35.93
2022-08-17T13:18:40.205Z,36.13
2022-08-17T13:21:12.129Z,36.28
2022-08-17T13:23:39.095Z,36.43
2022-08-17T13:26:15.991Z,36.34
2022-08-17T13:28:49.892Z,36.09
2022-08-17T13:31:32.986Z,36.30
2022-08-17T13:34:20.072Z,36.38
2022-08-17T13:36:51.163Z,35.75
2022-08-17T13:39:21.655Z,35.30
2022-08-17T13:41:50.401Z,35.70
2022-08-17T13:44:39.197Z,35.67
2022-08-17T13:47:16.683Z,35.73
2022-08-17T13:49:49.009Z,35.75
2022-08-17T13:52:38.278Z,35.31
2022-08-17T13:55:19.717Z,34.95
2022-08-17T13:57:57.778Z,34.82
2022-08-17T14:00:36.311Z,34.77
2022-08-17T14:03:04.938Z,35.04
2022-08-17T14:05:32.490Z,35.28
2022-08-17T14:08:06.482Z,35.33
2022-08-17T14:10:36.460Z,35.32
2022-08-17T14:13:03.593Z,35.21
2022-08-17T14:15:54.880Z,35.37
2022-08-17T14:18:55.923Z,35.49
2022-08-17T14:21:08.476Z,35.67
2022-08-17T14:23:35.995Z,35.65
2022-08-17T14:26:02.971Z,35.13
2022-08-17T14:28:29.938Z,35.17
2022-08-17T14:30:57.218Z,35.35
2022-08-17T14:33:24.794Z,35.34
2022-08-17T14:35:54.816Z,35.57
2022-08-17T14:38:22.029Z,35.53
2022-08-17T14:40:49.167Z,35.37
2022-08-17T14:43:16.142Z,35.11
2022-08-17T14:45:43.599Z,35.29
2022-08-17T14:48:11.116Z,35.52
2022-08-17T14:50:42.614Z,35.65
2022-08-17T14:53:12.610Z,35.68
2022-08-17T14:55:40.828Z,35.62
2022-08-17T14:58:08.985Z,35.36
2022-08-17T15:00:37.223Z,35.08
2022-08-17T15:03:04.560Z,35.04
2022-08-17T15:05:35.222Z,35.02
2022-08-17T15:08:03.357Z,34.93
2022-08-17T15:10:30.794Z,35.00
2022-08-17T15:12:58.157Z,35.25
2022-08-17T15:15:25.784Z,35.33
2022-08-17T15:17:52.907Z,35.44
2022-08-17T15:20:23.070Z,35.41
2022-08-17T15:22:50.700Z,35.21
2022-08-17T15:25:18.964Z,35.23
2022-08-17T15:27:46.110Z,34.86
2022-08-17T15:30:13.782Z,35.05
2022-08-17T15:32:45.765Z,35.09
2022-08-17T15:35:19.286Z,35.32
2022-08-17T15:37:54.758Z,35.32
2022-08-17T15:40:21.943Z,35.20
2022-08-17T15:42:48.985Z,35.22
2022-08-17T15:45:16.977Z,34.98
2022-08-17T15:47:44.206Z,34.98
2022-08-17T15:50:11.217Z,34.93
2022-08-17T15:52:40.475Z,35.00
2022-08-17T15:55:13.218Z,35.16
2022-08-17T15:57:40.394Z,35.20
2022-08-17T16:00:08.934Z,35.06
2022-08-17T16:03:14.864Z,35.08
2022-08-17T16:05:28.495Z,34.83
2022-08-17T16:07:58.577Z,34.81
2022-08-17T16:10:34.671Z,34.90
2022-08-17T16:13:04.030Z,34.84
2022-08-17T16:15:31.726Z,34.84
2022-08-17T16:17:59.221Z,34.94
2022-08-17T16:20:26.660Z,35.06
2022-08-17T16:22:54.225Z,34.92
2022-08-17T16:25:51.937Z,34.85
2022-08-17T16:28:21.826Z,34.92
2022-08-17T16:30:48.784Z,34.79
2022-08-17T16:33:16.726Z,34.70
2022-08-17T16:35:43.982Z,34.67
2022-08-17T16:38:12.460Z,34.58
2022-08-17T16:40:40.460Z,34.69
2022-08-17T16:43:12.019Z,34.63
2022-08-17T16:45:40.676Z,34.36
2022-08-17T16:48:09.474Z,34.24
2022-08-17T16:50:36.674Z,34.14
2022-08-17T16:53:10.558Z,34.06
2022-08-17T16:55:38.212Z,34.08
2022-08-17T16:58:06.203Z,33.63
2022-08-17T17:00:33.995Z,33.78
2022-08-17T17:03:19.096Z,33.80
2022-08-17T17:06:07.140Z,33.77
2022-08-17T17:08:51.100Z,33.57
2022-08-17T17:11:34.028Z,33.47
2022-08-17T17:14:05.048Z,33.40
2022-08-17T17:16:40.934Z,33.40
2022-08-17T17:19:19.698Z,33.42
2022-08-17T17:22:21.567Z,33.31
2022-08-17T17:25:26.622Z,33.14
2022-08-17T17:28:00.231Z,32.92
2022-08-17T17:30:48.645Z,32.78
2022-08-17T17:33:32.868Z,32.76
2022-08-17T17:36:07.924Z,32.76
2022-08-17T17:38:41.035Z,32.57
2022-08-17T17:41:13.335Z,32.43
2022-08-17T17:43:41.042Z,32.23
2022-08-17T17:46:27.895Z,32.03
2022-08-17T17:48:59.609Z,31.88
2022-08-17T17:52:09.555Z,31.80
2022-08-17T17:54:43.182Z,31.79
2022-08-17T17:57:25.643Z,31.70
2022-08-17T17:59:52.440Z,31.48
2022-08-17T18:02:51.594Z,31.32
2022-08-17T18:05:31.811Z,31.22
2022-08-17T18:08:11.539Z,31.20
2022-08-17T18:10:58.473Z,31.06
2022-08-17T18:13:59.280Z,31.18
2022-08-17T18:16:28.373Z,31.09
2022-08-17T18:18:59.976Z,30.94
2022-08-17T18:21:39.769Z,30.92
2022-08-17T18:24:08.817Z,30.83
2022-08-17T18:26:55.241Z,30.59
2022-08-17T18:29:24.264Z,30.40
2022-08-17T18:32:22.188Z,30.31
2022-08-17T18:34:53.302Z,30.13
2022-08-17T18:37:35.341Z,30.04
2022-08-17T18:40:17.352Z,29.96
2022-08-17T18:42:45.926Z,29.92
2022-08-17T18:45:13.377Z,29.89
2022-08-17T18:47:55.701Z,29.76
2022-08-17T18:50:26.038Z,29.59
2022-08-17T18:52:55.181Z,29.52
2022-08-17T18:55:29.327Z,29.35
2022-08-17T18:57:58.967Z,29.28
2022-08-17T19:00:43.899Z,29.18
2022-08-17T19:03:16.752Z,29.07
2022-08-17T19:05:47.663Z,28.99
2022-08-17T19:08:19.773Z,28.87
2022-08-17T19:11:08.508Z,28.75
2022-08-17T19:13:44.334Z,28.70
2022-08-17T19:16:21.622Z,28.57
2022-08-17T19:19:14.421Z,28.55
2022-08-17T19:21:45.083Z,28.43
2022-08-17T19:24:14.460Z,28.31
2022-08-17T19:26:54.600Z,28.21
2022-08-17T19:29:35.968Z,28.22
2022-08-17T19:32:03.665Z,28.21
2022-08-17T19:34:34.356Z,28.13
2022-08-17T19:37:14.041Z,27.93
2022-08-17T19:39:44.649Z,27.87
2022-08-17T19:42:31.209Z,27.77
2022-08-17T19:45:15.858Z,27.67
2022-08-17T19:48:14.482Z,27.58
2022-08-17T19:51:17.692Z,27.52
2022-08-17T19:54:15.041Z,27.40
2022-08-17T19:57:11.618Z,27.21
2022-08-17T20:00:11.314Z,27.11
2022-08-17T20:03:06.691Z,27.01
2022-08-17T20:06:00.900Z,26.97
2022-08-17T20:08:29.734Z,26.91
2022-08-17T20:10:59.660Z,26.91
2022-08-17T20:13:46.396Z,26.88
2022-08-17T20:16:13.415Z,26.81
2022-08-17T20:18:52.450Z,26.73
2022-08-17T20:21:29.071Z,26.70
2022-08-17T20:24:32.710Z,26.59
2022-08-17T20:27:12.643Z,26.47
2022-08-17T20:30:18.771Z,26.41
2022-08-17T20:32:48.632Z,26.35
2022-08-17T20:35:42.261Z,26.33
2022-08-17T20:38:11.429Z,26.28
2022-08-17T20:41:15.387Z,26.26
2022-08-17T20:43:46.522Z,26.25
2022-08-17T20:46:22.658Z,26.09
2022-08-17T20:48:52.706Z,26.05
2022-08-17T20:51:33.300Z,25.99
2022-08-17T20:54:27.224Z,25.87
2022-08-17T20:56:57.797Z,25.78
2022-08-17T20:59:28.605Z,25.66
2022-08-17T21:02:18.689Z,25.63
2022-08-17T21:05:00.782Z,25.54
2022-08-17T21:07:42.920Z,25.51
2022-08-17T21:10:26.084Z,25.48
2022-08-17T21:13:08.235Z,25.42
2022-08-17T21:16:05.241Z,25.32
2022-08-17T21:18:38.857Z,25.25
2022-08-17T21:21:40.083Z,25.23
2022-08-17T21:24:35.415Z,25.12
2022-08-17T21:27:46.010Z,25.09
2022-08-17T21:30:24.598Z,25.12
2022-08-17T21:33:20.534Z,25.08
2022-08-17T21:35:58.726Z,25.00
2022-08-17T21:38:51.538Z,24.86
2022-08-17T21:41:29.053Z,24.81
2022-08-17T21:44:03.330Z,24.68
2022-08-17T21:46:36.898Z,24.54
2022-08-17T21:49:13.449Z,24.48
2022-08-17T21:51:45.162Z,24.54
2022-08-17T21:54:35.469Z,24.53
2022-08-17T21:57:05.508Z,24.48
2022-08-17T21:59:39.295Z,24.37
2022-08-17T22:02:09.107Z,24.36
2022-08-17T22:04:41.361Z,24.30
2022-08-17T22:07:12.402Z,24.27
2022-08-17T22:09:49.995Z,24.23
2022-08-17T22:12:19.071Z,24.12
2022-08-17T22:14:55.447Z,24.07
2022-08-17T22:17:27.017Z,23.99
2022-08-17T22:20:15.859Z,23.96
2022-08-17T22:23:04.561Z,23.99
2022-08-17T22:25:34.167Z,24.03
2022-08-17T22:28:03.120Z,23.98
2022-08-17T22:30:34.800Z,24.00
2022-08-17T22:33:33.624Z,24.08
2022-08-17T22:36:25.174Z,24.08
2022-08-17T22:38:56.576Z,24.07
2022-08-17T22:41:40.583Z,23.98
2022-08-17T22:44:31.725Z,23.88
2022-08-17T22:47:17.027Z,23.71
2022-08-17T22:49:53.797Z,23.50
2022-08-17T22:52:32.298Z,23.37
2022-08-17T22:55:33.744Z,23.21
2022-08-17T22:58:20.203Z,23.05
2022-08-17T23:00:49.247Z,22.95
2022-08-17T23:03:19.934Z,22.87
2022-08-17T23:06:03.461Z,22.72
2022-08-17T23:08:31.115Z,22.61
2022-08-17T23:11:00.397Z,22.60
2022-08-17T23:13:28.074Z,22.59
2022-08-17T23:15:55.045Z,22.60
2022-08-17T23:18:23.487Z,22.52
2022-08-17T23:20:50.685Z,22.53
2022-08-17T23:23:23.440Z,22.42
2022-08-17T23:25:51.017Z,22.41
2022-08-17T23:28:17.938Z,22.44
2022-08-17T23:30:46.490Z,22.45
2022-08-17T23:33:26.535Z,22.21
2022-08-17T23:35:54.117Z,22.27
2022-08-17T23:38:22.523Z,22.68
2022-08-17T23:40:49.475Z,23.27
2022-08-17T23:43:24.221Z,23.55
2022-08-17T23:45:54.163Z,23.53
2022-08-17T23:48:35.003Z,23.50
2022-08-17T23:51:14.305Z,23.49
2022-08-17T23:53:48.295Z,23.47
2022-08-17T23:56:15.528Z,23.49
2022-08-17T23:58:43.526Z,23.55
